TAF EHRD
EHRD 081713Z 0818/0924 18010KT 9999 FEW022 PROB30 0902/0911 BKN007 PROB40 TEMPO 0911/0919 7000 -SHRA BKN014 SCT018TCU=
METAR EHRD
EHRD 082225Z AUTO 18009KT 150V210 9999 NCD 04/02 Q0999 NOSIG=
EHRD 082155Z AUTO 18010KT 9999 FEW049 04/02 Q0999 NOSIG=
EHRD 082125Z AUTO 18010KT 150V220 9999 FEW046 04/02 Q0999 NOSIG=
EHRD 082055Z AUTO 19010KT 160V220 9999 FEW045 05/02 Q0998 NOSIG=
EHRD 082025Z AUTO 19012KT 9999 NCD 05/02 Q0998 NOSIG=
WC EHRD
WS EHRD
WV EHRD